Pendleton, Oregon
Current Conditions -  °F | °C
As of 11:27 PM on Thursday 18 Dec 2014 (Local Time) from KPDT Reporting Station
Light Rain Light Rain  
Wind Chill: 30°   Ceiling: 5000
Heat Index: 36°   Visibility: 0.75mi
Dew Point: 36°   Wind: 8mph
Humidity: 100%   Direction: 330°NNW
Pressure: 29.88"   Gusts: NA
Location:  45.67°N, 118.78°W
Report Text: KPDT 190727Z AUTO 33007KT 3/4SM -RA BR BKN050 OVC065 02/02 A2988 RMK AO2 RAB09 P0000 T00220022
Loading
Personal Weather Stations






























Interactive Weather Map New forecast layout! Learn more

10-Day Weather Forecast

Advertisements
Track Severe Weather on mobile